Terminal Aerodrome Forecast
Issued by NWS

Home | Current Version | Previous Version | Text Only | Print | Product List | Glossary On
Versions: 1 2 3 4 5 6 7 8 9 10 11 12 13 14 15 16 17
632
FTUS43 KJKL 221725
TAFSME
TAF
KSME 221725Z 2218/2318 27004KT P6SM SCT045 BKN200
     FM230500 00000KT 5SM BR SCT250
     FM231300 VRB03KT P6SM FEW045=

USA.gov is the U.S. government's official web portal to all federal, state and local government web resources and services.